createdAt,value
2022-09-23T00:00:06.190Z,13.82
2022-09-23T00:02:35.111Z,13.65
2022-09-23T00:05:04.802Z,13.86
2022-09-23T00:07:33.746Z,13.76
2022-09-23T00:10:02.395Z,13.78
2022-09-23T00:12:31.382Z,13.74
2022-09-23T00:15:00.051Z,13.69
2022-09-23T00:17:29.302Z,13.77
2022-09-23T00:19:57.918Z,13.59
2022-09-23T00:22:26.708Z,13.71
2022-09-23T00:24:55.530Z,13.54
2022-09-23T00:27:24.599Z,13.71
2022-09-23T00:29:53.222Z,13.87
2022-09-23T00:32:22.250Z,14.00
2022-09-23T00:34:50.898Z,13.99
2022-09-23T00:37:20.702Z,13.99
2022-09-23T00:39:50.037Z,14.00
2022-09-23T00:42:21.692Z,13.95
2022-09-23T00:45:01.039Z,14.02
2022-09-23T00:47:35.198Z,13.98
2022-09-23T00:50:25.073Z,14.08
2022-09-23T00:52:57.651Z,14.03
2022-09-23T00:55:40.123Z,14.09
2022-09-23T00:58:13.588Z,14.05
2022-09-23T01:00:43.426Z,14.02
2022-09-23T01:03:12.904Z,13.90
2022-09-23T01:05:42.983Z,14.04
2022-09-23T01:08:14.563Z,14.07
2022-09-23T01:11:21.217Z,14.19
2022-09-23T01:14:28.657Z,14.31
2022-09-23T01:17:24.170Z,14.51
2022-09-23T01:20:07.134Z,14.66
2022-09-23T01:22:57.842Z,14.79
2022-09-23T01:26:02.839Z,15.02
2022-09-23T01:29:03.289Z,15.23
2022-09-23T01:31:52.643Z,15.47
2022-09-23T01:34:50.933Z,15.71
2022-09-23T01:37:34.795Z,15.97
2022-09-23T01:40:31.856Z,16.38
2022-09-23T01:43:45.424Z,16.52
2022-09-23T01:46:49.374Z,16.86
2022-09-23T01:49:29.218Z,16.93
2022-09-23T01:52:40.074Z,17.16
2022-09-23T01:55:14.509Z,17.60
2022-09-23T01:58:04.457Z,17.90
2022-09-23T02:00:40.444Z,18.24
2022-09-23T02:03:22.978Z,18.27
2022-09-23T02:06:02.687Z,18.73
2022-09-23T02:08:57.385Z,18.75
2022-09-23T02:11:28.318Z,19.30
2022-09-23T02:14:16.349Z,19.42
2022-09-23T02:16:52.229Z,19.76
2022-09-23T02:19:29.391Z,20.09
2022-09-23T02:22:10.781Z,20.43
2022-09-23T02:24:41.100Z,20.74
2022-09-23T02:27:32.952Z,21.03
2022-09-23T02:30:17.115Z,21.41
2022-09-23T02:33:12.771Z,21.40
2022-09-23T02:36:01.035Z,21.79
2022-09-23T02:38:40.900Z,21.87
2022-09-23T02:41:22.867Z,22.21
2022-09-23T02:43:55.690Z,22.23
2022-09-23T02:46:24.834Z,22.45
2022-09-23T02:49:12.158Z,22.39
2022-09-23T02:51:42.610Z,22.64
2022-09-23T02:54:16.062Z,22.71
2022-09-23T02:56:45.395Z,22.93
2022-09-23T02:59:14.505Z,23.08
2022-09-23T03:02:15.026Z,23.30
2022-09-23T03:05:13.573Z,23.15
2022-09-23T03:07:51.330Z,23.18
2022-09-23T03:10:29.295Z,23.44
2022-09-23T03:13:18.739Z,23.00
2022-09-23T03:16:04.407Z,23.33
2022-09-23T03:19:13.723Z,23.39
2022-09-23T03:21:52.999Z,23.47
2022-09-23T03:24:24.799Z,23.19
2022-09-23T03:26:55.711Z,23.62
2022-09-23T03:29:25.389Z,23.88
2022-09-23T03:31:55.205Z,23.85
2022-09-23T03:34:28.604Z,23.72
2022-09-23T03:37:02.342Z,23.75
2022-09-23T03:39:41.970Z,23.90
2022-09-23T03:42:30.972Z,23.63
2022-09-23T03:45:02.247Z,23.69
2022-09-23T03:47:31.908Z,23.50
2022-09-23T03:50:01.495Z,23.40
2022-09-23T03:52:30.457Z,23.13
2022-09-23T03:54:59.682Z,22.94
2022-09-23T03:57:28.577Z,22.94
2022-09-23T03:59:57.946Z,22.97
2022-09-23T04:02:27.850Z,22.86
2022-09-23T04:04:58.135Z,22.62
2022-09-23T04:07:26.794Z,22.43
2022-09-23T04:09:56.699Z,22.65
2022-09-23T04:12:25.593Z,22.89
2022-09-23T04:14:55.051Z,22.14
2022-09-23T04:17:23.742Z,22.24
2022-09-23T04:19:52.589Z,22.37
2022-09-23T04:22:21.431Z,22.35
2022-09-23T04:24:50.248Z,22.46
2022-09-23T04:27:19.658Z,22.24
2022-09-23T04:29:48.536Z,22.20
2022-09-23T04:32:17.145Z,22.32
2022-09-23T04:34:46.635Z,22.38
2022-09-23T04:37:15.220Z,22.38
2022-09-23T04:39:44.231Z,22.22
2022-09-23T04:42:12.941Z,21.98
2022-09-23T04:44:41.820Z,21.81
2022-09-23T04:47:10.397Z,21.80
2022-09-23T04:49:39.658Z,21.73
2022-09-23T04:52:08.273Z,21.73
2022-09-23T04:54:37.683Z,21.86
2022-09-23T04:57:06.908Z,21.84
2022-09-23T04:59:35.705Z,21.80
2022-09-23T05:02:04.461Z,21.82
2022-09-23T05:04:33.422Z,21.66
2022-09-23T05:07:03.562Z,21.73
2022-09-23T05:09:32.452Z,21.57
2022-09-23T05:12:01.150Z,21.71
2022-09-23T05:14:29.980Z,21.62
2022-09-23T05:16:58.586Z,21.52
2022-09-23T05:19:27.487Z,21.84
2022-09-23T05:21:56.302Z,21.77
2022-09-23T05:24:25.991Z,22.19
2022-09-23T05:26:59.687Z,22.38
2022-09-23T05:29:54.483Z,22.47
2022-09-23T05:32:23.876Z,22.48
2022-09-23T05:34:52.491Z,22.82
2022-09-23T05:37:21.419Z,23.24
2022-09-23T05:39:50.219Z,23.40
2022-09-23T05:42:22.043Z,23.68
2022-09-23T05:44:51.037Z,24.06
2022-09-23T05:47:19.894Z,24.01
2022-09-23T05:49:59.572Z,24.05
2022-09-23T05:52:29.555Z,23.73
2022-09-23T05:54:58.157Z,23.06
2022-09-23T05:57:27.779Z,23.34
2022-09-23T05:59:56.633Z,22.64
2022-09-23T06:02:25.551Z,24.02
2022-09-23T06:04:54.461Z,24.86
2022-09-23T06:07:23.305Z,25.34
2022-09-23T06:09:54.844Z,26.09
2022-09-23T06:12:24.259Z,25.67
2022-09-23T06:14:53.851Z,25.34
2022-09-23T06:17:22.838Z,26.03
2022-09-23T06:19:51.725Z,26.27
2022-09-23T06:22:20.570Z,25.07
2022-09-23T06:24:49.183Z,24.37
2022-09-23T06:27:18.272Z,24.41
2022-09-23T06:29:50.351Z,26.46
2022-09-23T06:32:20.815Z,26.23
2022-09-23T06:34:52.103Z,27.18
2022-09-23T06:37:21.638Z,26.88
2022-09-23T06:39:51.324Z,27.29
2022-09-23T06:42:20.175Z,28.05
2022-09-23T06:44:49.233Z,28.51
2022-09-23T06:47:18.273Z,28.73
2022-09-23T06:49:46.982Z,28.44
2022-09-23T06:52:16.149Z,28.98
2022-09-23T06:54:44.928Z,29.38
2022-09-23T06:57:14.967Z,29.55
2022-09-23T06:59:43.842Z,29.16
2022-09-23T07:02:13.421Z,29.18
2022-09-23T07:04:45.328Z,29.13
2022-09-23T07:07:15.040Z,26.78
2022-09-23T07:09:43.638Z,26.42
2022-09-23T07:12:14.113Z,27.43
2022-09-23T07:14:43.019Z,27.92
2022-09-23T07:17:14.036Z,27.34
2022-09-23T07:19:43.410Z,26.67
2022-09-23T07:22:12.891Z,26.05
2022-09-23T07:24:42.012Z,27.35
2022-09-23T07:27:10.950Z,27.98
2022-09-23T07:29:47.809Z,28.69
2022-09-23T07:32:18.195Z,28.27
2022-09-23T07:34:48.355Z,29.09
2022-09-23T07:37:19.076Z,29.41
2022-09-23T07:39:48.248Z,27.49
2022-09-23T07:42:16.878Z,26.87
2022-09-23T07:44:48.712Z,27.69
2022-09-23T07:47:18.905Z,27.64
2022-09-23T07:49:47.691Z,27.73
2022-09-23T07:52:16.872Z,28.49
2022-09-23T07:54:49.114Z,28.58
2022-09-23T07:57:18.265Z,29.25
2022-09-23T07:59:46.983Z,27.85
2022-09-23T08:02:17.262Z,27.81
2022-09-23T08:04:47.227Z,28.77
2022-09-23T08:07:17.204Z,27.54
2022-09-23T08:09:47.314Z,28.04
2022-09-23T08:12:19.871Z,26.68
2022-09-23T08:14:49.104Z,27.41
2022-09-23T08:17:17.881Z,26.83
2022-09-23T08:19:46.739Z,26.02
2022-09-23T08:22:17.028Z,26.21
2022-09-23T08:24:46.395Z,25.38
2022-09-23T08:27:15.634Z,24.93
2022-09-23T08:29:44.559Z,25.01
2022-09-23T08:32:13.248Z,24.95
2022-09-23T08:34:42.785Z,25.65
2022-09-23T08:37:12.303Z,24.66
2022-09-23T08:39:41.592Z,24.17
2022-09-23T08:42:22.927Z,24.29
2022-09-23T08:44:58.297Z,24.58
2022-09-23T08:47:33.525Z,24.04
2022-09-23T08:50:28.855Z,23.98
2022-09-23T08:53:15.943Z,23.50
2022-09-23T08:55:51.754Z,22.82
2022-09-23T08:58:35.278Z,22.52
2022-09-23T09:02:00.435Z,21.89
2022-09-23T09:04:38.770Z,21.54
2022-09-23T09:07:36.538Z,21.44
2022-09-23T09:10:12.525Z,21.19
2022-09-23T09:12:51.945Z,21.00
2022-09-23T09:15:29.591Z,20.86
2022-09-23T09:18:22.237Z,20.53
2022-09-23T09:21:10.876Z,20.59
2022-09-23T09:23:54.713Z,20.45
2022-09-23T09:26:28.834Z,20.44
2022-09-23T09:29:16.862Z,20.39
2022-09-23T09:31:51.793Z,20.39
2022-09-23T09:34:48.752Z,20.31
2022-09-23T09:37:24.555Z,20.21
2022-09-23T09:39:53.522Z,20.12
2022-09-23T09:42:31.955Z,20.29
2022-09-23T09:45:12.508Z,20.89
2022-09-23T09:47:53.309Z,20.77
2022-09-23T09:50:45.715Z,20.63
2022-09-23T09:53:26.448Z,22.05
2022-09-23T09:56:06.630Z,23.11
2022-09-23T09:58:50.670Z,23.50
2022-09-23T10:01:29.069Z,23.68
2022-09-23T10:04:00.251Z,22.85
2022-09-23T10:06:33.328Z,22.19
2022-09-23T10:09:11.788Z,22.04
2022-09-23T10:11:41.994Z,21.69
2022-09-23T10:14:19.111Z,21.61
2022-09-23T10:17:03.366Z,22.14
2022-09-23T10:19:33.565Z,22.26
2022-09-23T10:22:08.594Z,23.18
2022-09-23T10:24:37.822Z,22.44
2022-09-23T10:27:12.808Z,22.43
2022-09-23T10:29:51.690Z,23.14
2022-09-23T10:32:52.476Z,23.05
2022-09-23T10:35:24.712Z,23.85
2022-09-23T10:38:01.372Z,23.83
2022-09-23T10:40:57.154Z,23.70
2022-09-23T10:43:53.471Z,22.89
2022-09-23T10:46:47.024Z,23.29
2022-09-23T10:49:36.481Z,22.53
2022-09-23T10:52:05.275Z,23.03
2022-09-23T10:55:01.248Z,23.13
2022-09-23T10:57:55.589Z,23.47
2022-09-23T11:00:39.582Z,23.55
2022-09-23T11:03:21.347Z,23.73
2022-09-23T11:06:08.593Z,23.25
2022-09-23T11:08:59.997Z,22.56
2022-09-23T11:11:37.635Z,22.08
2022-09-23T11:14:35.047Z,21.91
2022-09-23T11:17:32.833Z,21.66
2022-09-23T11:20:29.034Z,22.06
2022-09-23T11:23:28.012Z,21.56
2022-09-23T11:26:35.103Z,21.55
2022-09-23T11:29:25.507Z,21.63
2022-09-23T11:32:15.845Z,21.38
2022-09-23T11:34:59.435Z,21.30
2022-09-23T11:37:35.681Z,21.48
2022-09-23T11:40:25.340Z,21.55
2022-09-23T11:43:03.520Z,21.58
2022-09-23T11:45:48.370Z,21.26
2022-09-23T11:48:27.239Z,21.36
2022-09-23T11:51:09.442Z,21.24
2022-09-23T11:53:47.124Z,21.11
2022-09-23T11:56:29.477Z,20.86
2022-09-23T11:59:30.235Z,20.79
2022-09-23T12:02:20.635Z,20.75
2022-09-23T12:05:02.236Z,20.73
2022-09-23T12:08:05.892Z,20.72
2022-09-23T12:10:59.046Z,20.51
2022-09-23T12:13:44.466Z,20.34
2022-09-23T12:16:46.470Z,20.23
2022-09-23T12:19:21.377Z,20.04
2022-09-23T12:22:37.621Z,19.86
2022-09-23T12:25:21.662Z,19.83
2022-09-23T12:27:56.019Z,19.63
2022-09-23T12:30:29.652Z,19.48
2022-09-23T12:33:28.624Z,19.30
2022-09-23T12:36:08.123Z,19.21
2022-09-23T12:38:41.445Z,19.17
2022-09-23T12:41:37.479Z,19.09
2022-09-23T12:44:13.758Z,18.93
2022-09-23T12:46:44.734Z,18.98
2022-09-23T12:49:27.454Z,18.83
2022-09-23T12:52:26.063Z,18.73
2022-09-23T12:55:18.091Z,18.63
2022-09-23T12:57:48.812Z,18.40
2022-09-23T13:00:32.196Z,18.26
2022-09-23T13:03:21.694Z,18.01
2022-09-23T13:06:16.348Z,18.07
2022-09-23T13:08:46.823Z,17.77
2022-09-23T13:11:34.907Z,17.81
2022-09-23T13:14:07.866Z,17.76
2022-09-23T13:16:44.750Z,17.67
2022-09-23T13:19:29.615Z,17.64
2022-09-23T13:22:09.645Z,17.51
2022-09-23T13:24:54.460Z,17.38
2022-09-23T13:27:28.685Z,17.35
2022-09-23T13:30:21.206Z,17.34
2022-09-23T13:33:05.209Z,17.21
2022-09-23T13:35:38.504Z,17.26
2022-09-23T13:38:27.297Z,17.15
2022-09-23T13:41:19.123Z,17.10
2022-09-23T13:44:00.484Z,16.84
2022-09-23T13:46:34.246Z,17.00
2022-09-23T13:49:04.245Z,16.85
2022-09-23T13:51:36.975Z,17.02
2022-09-23T13:54:06.515Z,16.72
2022-09-23T13:56:37.697Z,16.85
2022-09-23T13:59:27.527Z,16.85
2022-09-23T14:02:05.473Z,16.94
2022-09-23T14:04:34.378Z,16.81
2022-09-23T14:07:07.400Z,16.78
2022-09-23T14:09:37.882Z,16.70
2022-09-23T14:12:09.202Z,16.59
2022-09-23T14:14:41.539Z,16.82
2022-09-23T14:17:17.754Z,16.63
2022-09-23T14:19:47.757Z,16.77
2022-09-23T14:22:25.862Z,16.62
2022-09-23T14:24:56.874Z,16.61
2022-09-23T14:27:29.417Z,16.60
2022-09-23T14:29:59.404Z,16.57
2022-09-23T14:32:31.014Z,16.56
2022-09-23T14:35:06.185Z,16.49
2022-09-23T14:37:56.303Z,16.44
2022-09-23T14:40:38.404Z,16.35
2022-09-23T14:43:18.106Z,16.37
2022-09-23T14:45:51.510Z,16.18
2022-09-23T14:48:24.642Z,16.24
2022-09-23T14:51:01.552Z,16.02
2022-09-23T14:53:42.080Z,16.15
2022-09-23T14:56:21.587Z,16.16
2022-09-23T14:58:59.870Z,15.96
2022-09-23T15:01:36.048Z,16.07
2022-09-23T15:04:31.917Z,16.21
2022-09-23T15:07:18.056Z,16.30
2022-09-23T15:09:47.787Z,15.90
2022-09-23T15:12:22.428Z,16.12
2022-09-23T15:14:55.789Z,16.31
2022-09-23T15:17:25.213Z,16.27
2022-09-23T15:19:59.950Z,16.29
2022-09-23T15:22:32.184Z,16.22
2022-09-23T15:25:18.845Z,16.35
2022-09-23T15:28:17.518Z,16.41
2022-09-23T15:30:47.148Z,16.33
2022-09-23T15:33:17.283Z,16.33
2022-09-23T15:35:50.278Z,16.43
2022-09-23T15:38:20.264Z,16.36
2022-09-23T15:40:50.463Z,16.41
2022-09-23T15:43:23.644Z,16.36
2022-09-23T15:46:05.711Z,16.46
2022-09-23T15:48:45.327Z,16.51
2022-09-23T15:51:17.470Z,16.46
2022-09-23T15:53:48.251Z,16.41
2022-09-23T15:56:19.339Z,16.24
2022-09-23T15:58:49.872Z,16.27
2022-09-23T16:01:32.529Z,16.26
2022-09-23T16:04:02.790Z,15.89
2022-09-23T16:06:36.132Z,16.07
2022-09-23T16:09:05.421Z,16.10
2022-09-23T16:11:36.788Z,16.13
2022-09-23T16:14:05.538Z,16.24
2022-09-23T16:16:34.450Z,16.25
2022-09-23T16:19:06.554Z,16.31
2022-09-23T16:21:35.933Z,16.26
2022-09-23T16:24:05.277Z,16.18
2022-09-23T16:26:37.635Z,16.26
2022-09-23T16:29:06.748Z,16.24
2022-09-23T16:31:37.097Z,16.27
2022-09-23T16:34:07.323Z,16.16
2022-09-23T16:36:42.874Z,15.87
2022-09-23T16:39:15.882Z,15.79
2022-09-23T16:41:45.008Z,15.41
2022-09-23T16:44:17.284Z,15.25
2022-09-23T16:46:47.927Z,15.04
2022-09-23T16:49:21.078Z,15.09
2022-09-23T16:51:52.928Z,14.83
2022-09-23T16:54:23.712Z,14.99
2022-09-23T16:56:56.235Z,15.04
2022-09-23T16:59:44.855Z,14.86
2022-09-23T17:02:33.640Z,15.10
2022-09-23T17:05:05.522Z,15.06
2022-09-23T17:07:34.383Z,15.12
2022-09-23T17:10:03.932Z,15.19
2022-09-23T17:12:36.342Z,15.24
2022-09-23T17:15:08.169Z,15.21
2022-09-23T17:17:40.295Z,15.11
2022-09-23T17:20:09.426Z,15.32
2022-09-23T17:22:58.047Z,15.43
2022-09-23T17:25:27.818Z,15.40
2022-09-23T17:27:59.904Z,15.46
2022-09-23T17:30:30.283Z,15.42
2022-09-23T17:32:59.398Z,15.36
2022-09-23T17:35:30.382Z,15.35
2022-09-23T17:38:00.168Z,15.12
2022-09-23T17:40:30.481Z,15.19
2022-09-23T17:43:01.776Z,15.18
2022-09-23T17:45:31.972Z,15.19
2022-09-23T17:48:02.277Z,15.23
2022-09-23T17:50:33.934Z,15.07
2022-09-23T17:53:18.178Z,15.16
2022-09-23T17:55:56.277Z,14.92
2022-09-23T17:58:30.129Z,15.01
2022-09-23T18:01:00.600Z,15.08
2022-09-23T18:03:31.604Z,14.89
2022-09-23T18:06:12.364Z,14.87
2022-09-23T18:08:42.533Z,14.80
2022-09-23T18:11:20.091Z,14.75
2022-09-23T18:13:52.056Z,14.51
2022-09-23T18:16:24.214Z,14.59
2022-09-23T18:19:00.411Z,14.48
2022-09-23T18:21:33.059Z,14.51
2022-09-23T18:24:28.273Z,14.56
2022-09-23T18:26:51.360Z,14.55
2022-09-23T18:29:20.835Z,14.49
2022-09-23T18:31:50.379Z,14.44
2022-09-23T18:34:19.519Z,14.52
2022-09-23T18:36:48.300Z,14.45
2022-09-23T18:39:18.375Z,14.33
2022-09-23T18:41:47.235Z,14.51
2022-09-23T18:44:17.984Z,14.59
2022-09-23T18:46:46.814Z,14.45
2022-09-23T18:49:33.802Z,14.43
2022-09-23T18:52:02.915Z,14.32
2022-09-23T18:54:34.622Z,14.31
2022-09-23T18:57:03.560Z,14.20
2022-09-23T18:59:32.635Z,14.06
2022-09-23T19:02:01.865Z,13.95
2022-09-23T19:04:30.895Z,14.19
2022-09-23T19:07:01.151Z,14.28
2022-09-23T19:09:30.146Z,14.32
2022-09-23T19:11:58.812Z,14.35
2022-09-23T19:14:27.603Z,14.30
2022-09-23T19:16:56.383Z,14.06
2022-09-23T19:19:25.061Z,14.27
2022-09-23T19:21:53.607Z,14.39
2022-09-23T19:24:23.095Z,14.42
2022-09-23T19:26:56.073Z,14.31
2022-09-23T19:29:25.772Z,14.34
2022-09-23T19:31:54.494Z,14.34
2022-09-23T19:34:27.094Z,14.39
2022-09-23T19:36:58.403Z,14.38
2022-09-23T19:39:32.069Z,14.24
2022-09-23T19:42:01.133Z,14.31
2022-09-23T19:44:29.888Z,14.36
2022-09-23T19:46:59.139Z,14.33
2022-09-23T19:49:27.716Z,14.33
2022-09-23T19:51:56.722Z,14.18
2022-09-23T19:54:27.945Z,14.42
2022-09-23T19:56:57.303Z,14.33
2022-09-23T19:59:27.143Z,14.40
2022-09-23T20:01:56.316Z,14.37
2022-09-23T20:04:24.959Z,14.26
2022-09-23T20:06:53.700Z,14.39
2022-09-23T20:09:22.664Z,14.46
2022-09-23T20:11:51.882Z,14.35
2022-09-23T20:14:20.974Z,14.24
2022-09-23T20:16:49.913Z,14.23
2022-09-23T20:19:18.640Z,14.37
2022-09-23T20:22:07.402Z,14.27
2022-09-23T20:24:46.504Z,14.24
2022-09-23T20:27:15.613Z,14.33
2022-09-23T20:29:44.535Z,14.30
2022-09-23T20:32:13.545Z,14.25
2022-09-23T20:35:38.325Z,14.31
2022-09-23T20:38:08.155Z,14.24
2022-09-23T20:40:39.478Z,14.24
2022-09-23T20:43:08.908Z,14.13
2022-09-23T20:45:37.626Z,14.18
2022-09-23T20:48:12.262Z,14.03
2022-09-23T20:50:42.876Z,14.14
2022-09-23T20:53:12.021Z,14.22
2022-09-23T20:55:51.253Z,14.20
2022-09-23T20:58:20.713Z,14.29
2022-09-23T21:00:49.522Z,14.25
2022-09-23T21:03:18.394Z,14.17
2022-09-23T21:05:47.059Z,14.07
2022-09-23T21:08:17.025Z,14.18
2022-09-23T21:10:55.186Z,14.25
2022-09-23T21:13:24.295Z,14.28
2022-09-23T21:15:53.059Z,14.16
2022-09-23T21:18:22.743Z,14.30
2022-09-23T21:21:03.210Z,14.37
2022-09-23T21:23:37.142Z,14.17
2022-09-23T21:26:10.424Z,14.42
2022-09-23T21:28:44.748Z,14.32
2022-09-23T21:31:23.584Z,14.39
2022-09-23T21:34:04.425Z,14.14
2022-09-23T21:36:37.863Z,14.32
2022-09-23T21:39:07.785Z,14.34
2022-09-23T21:41:36.604Z,14.08
2022-09-23T21:44:05.940Z,14.23
2022-09-23T21:46:36.251Z,14.21
2022-09-23T21:49:06.376Z,14.21
2022-09-23T21:51:41.906Z,14.04
2022-09-23T21:54:16.958Z,13.92
2022-09-23T21:56:46.139Z,14.05
2022-09-23T21:59:14.709Z,13.93
2022-09-23T22:01:51.803Z,14.05
2022-09-23T22:04:22.836Z,14.05
2022-09-23T22:06:51.852Z,13.84
2022-09-23T22:09:22.258Z,13.97
2022-09-23T22:12:06.186Z,13.92
2022-09-23T22:14:35.499Z,14.00
2022-09-23T22:17:05.850Z,14.01
2022-09-23T22:19:40.246Z,14.04
2022-09-23T22:22:15.338Z,13.97
2022-09-23T22:24:45.126Z,14.07
2022-09-23T22:27:15.898Z,14.15
2022-09-23T22:30:03.142Z,14.03
2022-09-23T22:32:54.945Z,14.16
2022-09-23T22:35:24.174Z,14.16
2022-09-23T22:37:52.823Z,13.98
2022-09-23T22:40:21.629Z,13.98
2022-09-23T22:42:50.651Z,13.97
2022-09-23T22:45:19.551Z,14.06
2022-09-23T22:47:48.063Z,13.82
2022-09-23T22:50:17.059Z,14.16
2022-09-23T22:52:45.933Z,14.09
2022-09-23T22:55:14.856Z,13.95
2022-09-23T22:57:43.563Z,14.07
2022-09-23T23:00:13.530Z,14.14
2022-09-23T23:02:43.224Z,13.95
2022-09-23T23:05:12.837Z,14.20
2022-09-23T23:07:42.168Z,14.14
2022-09-23T23:10:10.965Z,14.28
2022-09-23T23:12:40.461Z,14.22
2022-09-23T23:15:12.840Z,14.21
2022-09-23T23:17:44.257Z,14.16
2022-09-23T23:20:14.199Z,14.05
2022-09-23T23:22:43.146Z,14.02
2022-09-23T23:25:12.257Z,13.90
2022-09-23T23:27:40.987Z,13.80
2022-09-23T23:30:10.346Z,13.68
2022-09-23T23:32:38.933Z,13.62
2022-09-23T23:35:08.147Z,13.56
2022-09-23T23:37:36.789Z,13.52
2022-09-23T23:40:06.219Z,13.39
2022-09-23T23:42:35.561Z,13.19
2022-09-23T23:45:04.654Z,13.23
2022-09-23T23:47:33.266Z,13.36
2022-09-23T23:50:05.257Z,13.30
2022-09-23T23:52:34.138Z,13.25
2022-09-23T23:55:03.760Z,13.09
2022-09-23T23:57:32.513Z,13.24
